sensor_id;sensor_type;location;lat;lon;timestamp;P1;durP1;ratioP1;P2;durP2;ratioP2
26034;SDS011;13809;48.632;11.576;2022-10-20T00:04:39;8.97;;;8.03;;
26034;SDS011;13809;48.632;11.576;2022-10-20T00:09:42;8.27;;;7.57;;
26034;SDS011;13809;48.632;11.576;2022-10-20T00:14:46;9.50;;;8.47;;
26034;SDS011;13809;48.632;11.576;2022-10-20T00:19:51;9.80;;;8.80;;
26034;SDS011;13809;48.632;11.576;2022-10-20T00:24:54;8.67;;;7.87;;
26034;SDS011;13809;48.632;11.576;2022-10-20T00:29:57;10.83;;;8.93;;
26034;SDS011;13809;48.632;11.576;2022-10-20T00:35:01;9.07;;;8.17;;
26034;SDS011;13809;48.632;11.576;2022-10-20T00:40:05;10.10;;;9.10;;
26034;SDS011;13809;48.632;11.576;2022-10-20T00:45:11;9.23;;;8.30;;
26034;SDS011;13809;48.632;11.576;2022-10-20T00:50:17;11.40;;;8.27;;
26034;SDS011;13809;48.632;11.576;2022-10-20T00:55:24;10.03;;;8.60;;
26034;SDS011;13809;48.632;11.576;2022-10-20T01:00:29;9.33;;;8.53;;
26034;SDS011;13809;48.632;11.576;2022-10-20T01:05:34;12.47;;;10.40;;
26034;SDS011;13809;48.632;11.576;2022-10-20T01:10:38;10.77;;;9.77;;
26034;SDS011;13809;48.632;11.576;2022-10-20T01:15:49;11.43;;;10.43;;
26034;SDS011;13809;48.632;11.576;2022-10-20T01:21:15;11.03;;;10.07;;
26034;SDS011;13809;48.632;11.576;2022-10-20T01:32:02;11.03;;;10.13;;
26034;SDS011;13809;48.632;11.576;2022-10-20T01:37:11;11.90;;;10.53;;
26034;SDS011;13809;48.632;11.576;2022-10-20T01:42:34;12.20;;;10.87;;
26034;SDS011;13809;48.632;11.576;2022-10-20T01:47:41;12.23;;;11.03;;
26034;SDS011;13809;48.632;11.576;2022-10-20T01:52:46;12.90;;;11.80;;
26034;SDS011;13809;48.632;11.576;2022-10-20T01:57:54;11.87;;;10.87;;
26034;SDS011;13809;48.632;11.576;2022-10-20T02:03:21;12.80;;;11.63;;
26034;SDS011;13809;48.632;11.576;2022-10-20T02:08:35;11.33;;;10.37;;
26034;SDS011;13809;48.632;11.576;2022-10-20T02:13:42;12.73;;;11.63;;
26034;SDS011;13809;48.632;11.576;2022-10-20T02:18:47;11.10;;;10.20;;
26034;SDS011;13809;48.632;11.576;2022-10-20T02:23:51;12.23;;;10.93;;
26034;SDS011;13809;48.632;11.576;2022-10-20T02:28:58;11.50;;;10.50;;
26034;SDS011;13809;48.632;11.576;2022-10-20T02:34:05;12.37;;;11.27;;
26034;SDS011;13809;48.632;11.576;2022-10-20T02:39:09;12.90;;;11.67;;
26034;SDS011;13809;48.632;11.576;2022-10-20T02:44:12;11.97;;;10.77;;
26034;SDS011;13809;48.632;11.576;2022-10-20T02:49:17;12.87;;;11.67;;
26034;SDS011;13809;48.632;11.576;2022-10-20T02:54:21;14.17;;;11.40;;
26034;SDS011;13809;48.632;11.576;2022-10-20T02:59:24;10.70;;;9.63;;
26034;SDS011;13809;48.632;11.576;2022-10-20T03:04:29;11.80;;;10.70;;
26034;SDS011;13809;48.632;11.576;2022-10-20T03:09:32;12.60;;;11.30;;
26034;SDS011;13809;48.632;11.576;2022-10-20T03:14:35;10.17;;;9.27;;
26034;SDS011;13809;48.632;11.576;2022-10-20T03:19:40;10.80;;;9.80;;
26034;SDS011;13809;48.632;11.576;2022-10-20T03:24:43;10.17;;;9.27;;
26034;SDS011;13809;48.632;11.576;2022-10-20T03:29:46;10.27;;;9.37;;
26034;SDS011;13809;48.632;11.576;2022-10-20T03:34:50;11.13;;;10.03;;
26034;SDS011;13809;48.632;11.576;2022-10-20T03:39:53;10.20;;;9.40;;
26034;SDS011;13809;48.632;11.576;2022-10-20T03:44:56;10.40;;;9.57;;
26034;SDS011;13809;48.632;11.576;2022-10-20T03:50:01;10.20;;;9.23;;
26034;SDS011;13809;48.632;11.576;2022-10-20T03:55:06;10.10;;;9.10;;
26034;SDS011;13809;48.632;11.576;2022-10-20T04:00:10;10.17;;;9.27;;
26034;SDS011;13809;48.632;11.576;2022-10-20T04:05:16;10.77;;;9.10;;
26034;SDS011;13809;48.632;11.576;2022-10-20T04:10:21;9.73;;;8.93;;
26034;SDS011;13809;48.632;11.576;2022-10-20T04:15:24;11.70;;;9.57;;
26034;SDS011;13809;48.632;11.576;2022-10-20T04:20:29;9.97;;;9.00;;
26034;SDS011;13809;48.632;11.576;2022-10-20T04:25:32;8.90;;;8.20;;
26034;SDS011;13809;48.632;11.576;2022-10-20T04:30:36;8.20;;;7.50;;
26034;SDS011;13809;48.632;11.576;2022-10-20T04:35:41;9.90;;;8.90;;
26034;SDS011;13809;48.632;11.576;2022-10-20T04:40:51;8.87;;;8.07;;
26034;SDS011;13809;48.632;11.576;2022-10-20T04:45:58;9.73;;;8.17;;
26034;SDS011;13809;48.632;11.576;2022-10-20T04:51:10;8.90;;;8.03;;
26034;SDS011;13809;48.632;11.576;2022-10-20T04:56:15;8.90;;;8.20;;
26034;SDS011;13809;48.632;11.576;2022-10-20T05:01:21;8.83;;;7.97;;
26034;SDS011;13809;48.632;11.576;2022-10-20T05:06:28;8.97;;;8.17;;
26034;SDS011;13809;48.632;11.576;2022-10-20T05:11:33;9.30;;;8.40;;
26034;SDS011;13809;48.632;11.576;2022-10-20T05:16:37;9.10;;;8.30;;
26034;SDS011;13809;48.632;11.576;2022-10-20T05:21:42;8.10;;;7.30;;
26034;SDS011;13809;48.632;11.576;2022-10-20T05:26:46;8.70;;;7.90;;
26034;SDS011;13809;48.632;11.576;2022-10-20T05:31:49;7.90;;;7.20;;
26034;SDS011;13809;48.632;11.576;2022-10-20T05:36:53;8.57;;;7.77;;
26034;SDS011;13809;48.632;11.576;2022-10-20T05:41:56;9.20;;;8.07;;
26034;SDS011;13809;48.632;11.576;2022-10-20T05:46:59;8.27;;;7.53;;
26034;SDS011;13809;48.632;11.576;2022-10-20T05:52:04;8.70;;;7.80;;
26034;SDS011;13809;48.632;11.576;2022-10-20T05:57:07;8.53;;;7.73;;
26034;SDS011;13809;48.632;11.576;2022-10-20T06:02:10;7.73;;;6.70;;
26034;SDS011;13809;48.632;11.576;2022-10-20T06:07:15;8.40;;;7.50;;
26034;SDS011;13809;48.632;11.576;2022-10-20T06:12:18;9.90;;;7.50;;
26034;SDS011;13809;48.632;11.576;2022-10-20T06:17:21;7.90;;;7.20;;
26034;SDS011;13809;48.632;11.576;2022-10-20T06:22:26;9.17;;;7.73;;
26034;SDS011;13809;48.632;11.576;2022-10-20T06:27:29;10.13;;;7.23;;
26034;SDS011;13809;48.632;11.576;2022-10-20T06:32:32;8.97;;;7.13;;
26034;SDS011;13809;48.632;11.576;2022-10-20T06:37:37;7.70;;;6.90;;
26034;SDS011;13809;48.632;11.576;2022-10-20T06:42:40;8.00;;;7.30;;
26034;SDS011;13809;48.632;11.576;2022-10-20T06:47:43;7.77;;;7.07;;
26034;SDS011;13809;48.632;11.576;2022-10-20T06:52:48;8.53;;;7.70;;
26034;SDS011;13809;48.632;11.576;2022-10-20T06:57:51;7.97;;;7.27;;
26034;SDS011;13809;48.632;11.576;2022-10-20T07:02:54;8.63;;;7.70;;
26034;SDS011;13809;48.632;11.576;2022-10-20T07:07:58;8.27;;;7.37;;
26034;SDS011;13809;48.632;11.576;2022-10-20T07:13:01;8.33;;;7.53;;
26034;SDS011;13809;48.632;11.576;2022-10-20T07:18:05;8.00;;;7.20;;
26034;SDS011;13809;48.632;11.576;2022-10-20T07:23:09;8.37;;;7.20;;
26034;SDS011;13809;48.632;11.576;2022-10-20T07:28:12;7.67;;;6.87;;
26034;SDS011;13809;48.632;11.576;2022-10-20T07:33:15;7.00;;;6.30;;
26034;SDS011;13809;48.632;11.576;2022-10-20T07:38:20;6.83;;;6.23;;
26034;SDS011;13809;48.632;11.576;2022-10-20T07:43:23;6.50;;;5.90;;
26034;SDS011;13809;48.632;11.576;2022-10-20T07:48:26;6.50;;;5.57;;
26034;SDS011;13809;48.632;11.576;2022-10-20T07:53:30;6.30;;;5.80;;
26034;SDS011;13809;48.632;11.576;2022-10-20T07:58:34;6.57;;;5.87;;
26034;SDS011;13809;48.632;11.576;2022-10-20T08:03:37;6.27;;;5.67;;
26034;SDS011;13809;48.632;11.576;2022-10-20T08:08:42;6.50;;;5.20;;
26034;SDS011;13809;48.632;11.576;2022-10-20T08:13:45;5.90;;;5.40;;
26034;SDS011;13809;48.632;11.576;2022-10-20T08:18:48;5.60;;;5.20;;
26034;SDS011;13809;48.632;11.576;2022-10-20T08:23:55;5.43;;;4.93;;
26034;SDS011;13809;48.632;11.576;2022-10-20T08:28:58;5.67;;;5.20;;
26034;SDS011;13809;48.632;11.576;2022-10-20T08:34:03;5.43;;;4.93;;
26034;SDS011;13809;48.632;11.576;2022-10-20T08:39:07;5.50;;;5.00;;
26034;SDS011;13809;48.632;11.576;2022-10-20T08:44:11;6.03;;;5.37;;
26034;SDS011;13809;48.632;11.576;2022-10-20T08:49:19;5.63;;;5.13;;
26034;SDS011;13809;48.632;11.576;2022-10-20T08:54:26;5.17;;;4.67;;
26034;SDS011;13809;48.632;11.576;2022-10-20T08:59:32;6.03;;;4.90;;
26034;SDS011;13809;48.632;11.576;2022-10-20T09:04:40;5.30;;;4.80;;
26034;SDS011;13809;48.632;11.576;2022-10-20T09:09:49;5.73;;;5.10;;
26034;SDS011;13809;48.632;11.576;2022-10-20T09:14:52;5.40;;;4.90;;
26034;SDS011;13809;48.632;11.576;2022-10-20T09:19:55;5.30;;;4.77;;
26034;SDS011;13809;48.632;11.576;2022-10-20T09:25:03;5.00;;;4.57;;
26034;SDS011;13809;48.632;11.576;2022-10-20T09:30:14;4.97;;;4.40;;
26034;SDS011;13809;48.632;11.576;2022-10-20T09:35:20;4.93;;;4.53;;
26034;SDS011;13809;48.632;11.576;2022-10-20T09:40:27;5.23;;;4.77;;
26034;SDS011;13809;48.632;11.576;2022-10-20T09:45:31;5.90;;;4.40;;
26034;SDS011;13809;48.632;11.576;2022-10-20T09:50:36;4.87;;;4.40;;
26034;SDS011;13809;48.632;11.576;2022-10-20T09:55:46;5.60;;;4.70;;
26034;SDS011;13809;48.632;11.576;2022-10-20T10:00:57;4.70;;;4.30;;
26034;SDS011;13809;48.632;11.576;2022-10-20T10:06:03;6.23;;;4.30;;
26034;SDS011;13809;48.632;11.576;2022-10-20T10:11:24;5.13;;;4.53;;
26034;SDS011;13809;48.632;11.576;2022-10-20T10:16:41;4.90;;;4.40;;
26034;SDS011;13809;48.632;11.576;2022-10-20T10:21:46;5.97;;;4.70;;
26034;SDS011;13809;48.632;11.576;2022-10-20T10:26:54;5.33;;;4.30;;
26034;SDS011;13809;48.632;11.576;2022-10-20T10:31:58;5.27;;;4.40;;
26034;SDS011;13809;48.632;11.576;2022-10-20T10:37:03;4.30;;;3.87;;
26034;SDS011;13809;48.632;11.576;2022-10-20T10:47:52;4.40;;;4.00;;
26034;SDS011;13809;48.632;11.576;2022-10-20T10:53:14;4.20;;;3.80;;
26034;SDS011;13809;48.632;11.576;2022-10-20T10:58:30;4.53;;;4.13;;
26034;SDS011;13809;48.632;11.576;2022-10-20T11:03:43;6.70;;;4.10;;
26034;SDS011;13809;48.632;11.576;2022-10-20T11:09:11;4.00;;;3.60;;
26034;SDS011;13809;48.632;11.576;2022-10-20T11:14:27;3.67;;;3.37;;
26034;SDS011;13809;48.632;11.576;2022-10-20T11:19:45;4.20;;;3.80;;
26034;SDS011;13809;48.632;11.576;2022-10-20T11:25:00;4.07;;;3.57;;
26034;SDS011;13809;48.632;11.576;2022-10-20T11:30:14;3.83;;;3.53;;
26034;SDS011;13809;48.632;11.576;2022-10-20T11:35:21;4.03;;;3.70;;
26034;SDS011;13809;48.632;11.576;2022-10-20T11:40:31;3.80;;;3.50;;
26034;SDS011;13809;48.632;11.576;2022-10-20T11:45:44;4.07;;;3.73;;
26034;SDS011;13809;48.632;11.576;2022-10-20T11:50:57;4.30;;;3.80;;
26034;SDS011;13809;48.632;11.576;2022-10-20T11:56:19;5.27;;;3.80;;
26034;SDS011;13809;48.632;11.576;2022-10-20T12:01:29;4.07;;;3.70;;
26034;SDS011;13809;48.632;11.576;2022-10-20T12:06:40;3.50;;;3.20;;
26034;SDS011;13809;48.632;11.576;2022-10-20T12:12:07;3.57;;;3.17;;
26034;SDS011;13809;48.632;11.576;2022-10-20T12:17:21;3.73;;;3.37;;
26034;SDS011;13809;48.632;11.576;2022-10-20T12:22:37;4.97;;;3.70;;
26034;SDS011;13809;48.632;11.576;2022-10-20T12:27:44;4.70;;;3.47;;
26034;SDS011;13809;48.632;11.576;2022-10-20T12:32:55;3.70;;;3.40;;
26034;SDS011;13809;48.632;11.576;2022-10-20T12:38:12;3.30;;;3.00;;
26034;SDS011;13809;48.632;11.576;2022-10-20T12:43:27;3.33;;;3.03;;
26034;SDS011;13809;48.632;11.576;2022-10-20T12:48:54;5.13;;;3.50;;
26034;SDS011;13809;48.632;11.576;2022-10-20T12:54:01;7.27;;;4.50;;
26034;SDS011;13809;48.632;11.576;2022-10-20T13:04:54;5.83;;;4.53;;
26034;SDS011;13809;48.632;11.576;2022-10-20T13:09:59;6.83;;;5.30;;
26034;SDS011;13809;48.632;11.576;2022-10-20T13:15:05;4.80;;;4.30;;
26034;SDS011;13809;48.632;11.576;2022-10-20T13:20:17;4.67;;;4.03;;
26034;SDS011;13809;48.632;11.576;2022-10-20T13:25:34;4.43;;;3.67;;
26034;SDS011;13809;48.632;11.576;2022-10-20T13:30:41;4.20;;;3.80;;
26034;SDS011;13809;48.632;11.576;2022-10-20T13:36:03;3.60;;;3.30;;
26034;SDS011;13809;48.632;11.576;2022-10-20T13:41:12;3.10;;;2.90;;
26034;SDS011;13809;48.632;11.576;2022-10-20T13:46:24;4.70;;;3.00;;
26034;SDS011;13809;48.632;11.576;2022-10-20T13:51:43;3.10;;;2.57;;
26034;SDS011;13809;48.632;11.576;2022-10-20T13:56:50;5.23;;;2.83;;
26034;SDS011;13809;48.632;11.576;2022-10-20T14:01:55;3.70;;;2.77;;
26034;SDS011;13809;48.632;11.576;2022-10-20T14:07:05;3.20;;;2.80;;
26034;SDS011;13809;48.632;11.576;2022-10-20T14:12:13;3.73;;;2.90;;
26034;SDS011;13809;48.632;11.576;2022-10-20T14:17:24;3.20;;;2.90;;
26034;SDS011;13809;48.632;11.576;2022-10-20T14:22:29;3.20;;;2.90;;
26034;SDS011;13809;48.632;11.576;2022-10-20T14:27:33;3.07;;;2.80;;
26034;SDS011;13809;48.632;11.576;2022-10-20T14:32:38;2.97;;;2.70;;
26034;SDS011;13809;48.632;11.576;2022-10-20T14:37:44;3.60;;;3.00;;
26034;SDS011;13809;48.632;11.576;2022-10-20T14:43:00;3.97;;;3.00;;
26034;SDS011;13809;48.632;11.576;2022-10-20T14:48:05;2.80;;;2.60;;
26034;SDS011;13809;48.632;11.576;2022-10-20T14:53:26;3.33;;;2.60;;
26034;SDS011;13809;48.632;11.576;2022-10-20T14:58:34;2.63;;;2.43;;
26034;SDS011;13809;48.632;11.576;2022-10-20T15:03:38;2.87;;;2.40;;
26034;SDS011;13809;48.632;11.576;2022-10-20T15:08:51;2.70;;;2.50;;
26034;SDS011;13809;48.632;11.576;2022-10-20T15:13:58;4.03;;;2.83;;
26034;SDS011;13809;48.632;11.576;2022-10-20T15:19:11;4.53;;;2.77;;
26034;SDS011;13809;48.632;11.576;2022-10-20T15:24:32;3.70;;;3.40;;
26034;SDS011;13809;48.632;11.576;2022-10-20T15:29:35;5.70;;;3.07;;
26034;SDS011;13809;48.632;11.576;2022-10-20T15:34:39;3.73;;;3.43;;
26034;SDS011;13809;48.632;11.576;2022-10-20T15:39:43;4.83;;;4.10;;
26034;SDS011;13809;48.632;11.576;2022-10-20T15:44:46;3.93;;;3.50;;
26034;SDS011;13809;48.632;11.576;2022-10-20T15:49:49;4.80;;;3.20;;
26034;SDS011;13809;48.632;11.576;2022-10-20T15:54:54;2.90;;;2.70;;
26034;SDS011;13809;48.632;11.576;2022-10-20T15:59:57;4.57;;;3.10;;
26034;SDS011;13809;48.632;11.576;2022-10-20T16:05:00;2.73;;;2.53;;
26034;SDS011;13809;48.632;11.576;2022-10-20T16:10:06;3.40;;;2.90;;
26034;SDS011;13809;48.632;11.576;2022-10-20T16:15:11;5.43;;;3.20;;
26034;SDS011;13809;48.632;11.576;2022-10-20T16:20:14;4.30;;;3.20;;
26034;SDS011;13809;48.632;11.576;2022-10-20T16:25:19;3.30;;;3.00;;
26034;SDS011;13809;48.632;11.576;2022-10-20T16:30:22;3.70;;;3.40;;
26034;SDS011;13809;48.632;11.576;2022-10-20T16:35:25;4.97;;;4.30;;
26034;SDS011;13809;48.632;11.576;2022-10-20T16:40:30;5.63;;;5.03;;
26034;SDS011;13809;48.632;11.576;2022-10-20T16:45:35;6.57;;;4.67;;
26034;SDS011;13809;48.632;11.576;2022-10-20T16:50:40;4.73;;;4.33;;
26034;SDS011;13809;48.632;11.576;2022-10-20T16:55:52;5.73;;;4.07;;
26034;SDS011;13809;48.632;11.576;2022-10-20T17:00:56;4.60;;;3.67;;
26034;SDS011;13809;48.632;11.576;2022-10-20T17:06:02;4.30;;;3.87;;
26034;SDS011;13809;48.632;11.576;2022-10-20T17:11:08;4.10;;;3.50;;
26034;SDS011;13809;48.632;11.576;2022-10-20T17:16:13;3.70;;;3.40;;
26034;SDS011;13809;48.632;11.576;2022-10-20T17:21:18;4.00;;;3.43;;
26034;SDS011;13809;48.632;11.576;2022-10-20T17:26:23;3.87;;;3.50;;
26034;SDS011;13809;48.632;11.576;2022-10-20T17:31:28;7.07;;;4.00;;
26034;SDS011;13809;48.632;11.576;2022-10-20T17:36:31;4.47;;;4.07;;
26034;SDS011;13809;48.632;11.576;2022-10-20T17:41:36;4.30;;;3.90;;
26034;SDS011;13809;48.632;11.576;2022-10-20T17:46:39;5.93;;;4.43;;
26034;SDS011;13809;48.632;11.576;2022-10-20T17:51:43;5.00;;;4.50;;
26034;SDS011;13809;48.632;11.576;2022-10-20T17:56:48;4.70;;;4.20;;
26034;SDS011;13809;48.632;11.576;2022-10-20T18:01:52;4.43;;;4.03;;
26034;SDS011;13809;48.632;11.576;2022-10-20T18:06:56;5.00;;;4.60;;
26034;SDS011;13809;48.632;11.576;2022-10-20T18:12:00;5.37;;;4.87;;
26034;SDS011;13809;48.632;11.576;2022-10-20T18:17:03;4.07;;;3.70;;
26034;SDS011;13809;48.632;11.576;2022-10-20T18:22:06;4.23;;;3.83;;
26034;SDS011;13809;48.632;11.576;2022-10-20T18:27:11;5.43;;;4.70;;
26034;SDS011;13809;48.632;11.576;2022-10-20T18:32:19;5.43;;;4.93;;
26034;SDS011;13809;48.632;11.576;2022-10-20T18:37:22;4.73;;;4.30;;
26034;SDS011;13809;48.632;11.576;2022-10-20T18:42:27;5.67;;;4.40;;
26034;SDS011;13809;48.632;11.576;2022-10-20T18:47:30;5.77;;;4.70;;
26034;SDS011;13809;48.632;11.576;2022-10-20T18:52:36;5.70;;;5.20;;
26034;SDS011;13809;48.632;11.576;2022-10-20T18:57:41;5.13;;;4.30;;
26034;SDS011;13809;48.632;11.576;2022-10-20T19:02:48;5.00;;;4.60;;
26034;SDS011;13809;48.632;11.576;2022-10-20T19:07:58;4.77;;;4.27;;
26034;SDS011;13809;48.632;11.576;2022-10-20T19:13:05;5.83;;;4.30;;
26034;SDS011;13809;48.632;11.576;2022-10-20T19:18:08;4.50;;;3.63;;
26034;SDS011;13809;48.632;11.576;2022-10-20T19:23:11;4.73;;;3.63;;
26034;SDS011;13809;48.632;11.576;2022-10-20T19:28:16;4.37;;;3.67;;
26034;SDS011;13809;48.632;11.576;2022-10-20T19:33:19;4.00;;;3.23;;
26034;SDS011;13809;48.632;11.576;2022-10-20T19:38:23;4.40;;;3.80;;
26034;SDS011;13809;48.632;11.576;2022-10-20T19:43:27;4.07;;;3.77;;
26034;SDS011;13809;48.632;11.576;2022-10-20T19:48:31;6.63;;;4.00;;
26034;SDS011;13809;48.632;11.576;2022-10-20T19:53:35;3.83;;;3.53;;
26034;SDS011;13809;48.632;11.576;2022-10-20T19:58:40;4.97;;;4.20;;
26034;SDS011;13809;48.632;11.576;2022-10-20T20:03:47;4.70;;;4.10;;
26034;SDS011;13809;48.632;11.576;2022-10-20T20:08:50;6.43;;;3.90;;
26034;SDS011;13809;48.632;11.576;2022-10-20T20:14:02;4.50;;;3.87;;
26034;SDS011;13809;48.632;11.576;2022-10-20T20:19:06;5.00;;;4.43;;
26034;SDS011;13809;48.632;11.576;2022-10-20T20:24:10;4.43;;;4.03;;
26034;SDS011;13809;48.632;11.576;2022-10-20T20:29:15;4.23;;;3.83;;
26034;SDS011;13809;48.632;11.576;2022-10-20T20:34:18;4.07;;;3.77;;
26034;SDS011;13809;48.632;11.576;2022-10-20T20:39:22;3.87;;;3.57;;
26034;SDS011;13809;48.632;11.576;2022-10-20T20:44:32;4.33;;;3.93;;
26034;SDS011;13809;48.632;11.576;2022-10-20T20:49:37;4.93;;;4.03;;
26034;SDS011;13809;48.632;11.576;2022-10-20T20:54:40;4.83;;;3.70;;
26034;SDS011;13809;48.632;11.576;2022-10-20T20:59:45;6.70;;;4.13;;
26034;SDS011;13809;48.632;11.576;2022-10-20T21:04:49;4.90;;;3.80;;
26034;SDS011;13809;48.632;11.576;2022-10-20T21:09:52;4.73;;;3.97;;
26034;SDS011;13809;48.632;11.576;2022-10-20T21:14:56;5.27;;;4.10;;
26034;SDS011;13809;48.632;11.576;2022-10-20T21:19:59;3.97;;;3.67;;
26034;SDS011;13809;48.632;11.576;2022-10-20T21:25:03;4.30;;;3.57;;
26034;SDS011;13809;48.632;11.576;2022-10-20T21:30:08;4.00;;;3.60;;
26034;SDS011;13809;48.632;11.576;2022-10-20T21:35:12;4.00;;;3.60;;
26034;SDS011;13809;48.632;11.576;2022-10-20T21:40:15;3.93;;;3.63;;
26034;SDS011;13809;48.632;11.576;2022-10-20T21:45:19;4.00;;;3.67;;
26034;SDS011;13809;48.632;11.576;2022-10-20T21:50:23;4.63;;;3.57;;
26034;SDS011;13809;48.632;11.576;2022-10-20T21:55:26;5.53;;;3.90;;
26034;SDS011;13809;48.632;11.576;2022-10-20T22:00:30;4.00;;;3.70;;
26034;SDS011;13809;48.632;11.576;2022-10-20T22:05:36;3.67;;;3.37;;
26034;SDS011;13809;48.632;11.576;2022-10-20T22:10:53;4.20;;;3.77;;
26034;SDS011;13809;48.632;11.576;2022-10-20T22:15:58;4.20;;;3.47;;
26034;SDS011;13809;48.632;11.576;2022-10-20T22:21:02;5.20;;;3.70;;
26034;SDS011;13809;48.632;11.576;2022-10-20T22:26:12;4.40;;;4.00;;
26034;SDS011;13809;48.632;11.576;2022-10-20T22:31:17;4.50;;;4.10;;
26034;SDS011;13809;48.632;11.576;2022-10-20T22:36:20;4.30;;;3.90;;
26034;SDS011;13809;48.632;11.576;2022-10-20T22:41:24;4.47;;;4.07;;
26034;SDS011;13809;48.632;11.576;2022-10-20T22:46:28;4.60;;;4.00;;
26034;SDS011;13809;48.632;11.576;2022-10-20T22:51:31;5.40;;;4.03;;
26034;SDS011;13809;48.632;11.576;2022-10-20T22:56:34;4.03;;;3.73;;
26034;SDS011;13809;48.632;11.576;2022-10-20T23:01:39;5.07;;;4.10;;
26034;SDS011;13809;48.632;11.576;2022-10-20T23:06:42;4.70;;;3.80;;
26034;SDS011;13809;48.632;11.576;2022-10-20T23:11:48;5.90;;;4.43;;
26034;SDS011;13809;48.632;11.576;2022-10-20T23:16:53;5.23;;;4.60;;
26034;SDS011;13809;48.632;11.576;2022-10-20T23:21:56;4.60;;;4.30;;
26034;SDS011;13809;48.632;11.576;2022-10-20T23:26:59;4.43;;;4.13;;
26034;SDS011;13809;48.632;11.576;2022-10-20T23:32:04;5.47;;;5.07;;
26034;SDS011;13809;48.632;11.576;2022-10-20T23:37:07;5.33;;;4.83;;
26034;SDS011;13809;48.632;11.576;2022-10-20T23:42:10;8.00;;;5.20;;
26034;SDS011;13809;48.632;11.576;2022-10-20T23:47:15;5.80;;;5.30;;
26034;SDS011;13809;48.632;11.576;2022-10-20T23:52:18;5.63;;;5.13;;
26034;SDS011;13809;48.632;11.576;2022-10-20T23:57:21;5.87;;;5.30;;
